< < Back
Terminal Aerodrome Forecast


Current Version              Previous Versions:   1  2  3  4  5  6  7  8  9  

Terminal Aerodrome Forecast

535
FTUS42 KCHS 220500
TAFCHS
TAF
KCHS 220520Z 2206/2306 06003KT P6SM SCT025 BKN120
     FM221000 VRB02KT P6SM VCSH SCT015 BKN035
      TEMPO 2211/2213 BKN025
     FM221500 VRB06KT P6SM VCTS SCT030CB BKN060
     FM222100 16005KT P6SM SCT040 BKN250=



Latest METAR

109
SAUS80 KWBC 220700 RRD
MTRCHS
METAR KCHS 220656Z COR 03004KT 10SM FEW050 SCT250 25/23 A3004 RMK AO2
SLP172 T02500233 $


USA.gov is the U.S. government's official web portal to all federal, state and local government web resources and services.